Terminal Aerodrome Forecast
Issued by NWS

Home | Current Version | Previous Version | Text Only | Print | Product List | Glossary On
Versions: 1 2 3 4 5 6 7 8 9 10 11 12
000
FTUS45 KREV 292333
TAFRNO
TAF
KRNO 292333Z 3000/3024 26011G20KT P6SM BKN080 BKN140
     FM300900 23020G30KT P6SM VCSH BKN070 BKN140 WS020/30045KT
     FM301200 28020G35KT P6SM -SHRA BKN040 OVC080
     FM301600 33024G32KT P6SM BKN050=

USA.gov is the U.S. government's official web portal to all federal, state and local government web resources and services.